createdAt,value
2018-06-19T00:01:26.986Z,5.67
2018-06-19T00:03:57.417Z,6.65
2018-06-19T00:06:27.864Z,7.03
2018-06-19T00:08:58.357Z,6.50
2018-06-19T00:11:28.884Z,6.45
2018-06-19T00:13:59.378Z,17.35
2018-06-19T00:16:29.891Z,17.10
2018-06-19T00:19:01.485Z,15.70
2018-06-19T00:21:36.927Z,21.35
2018-06-19T00:24:07.518Z,22.95
2018-06-19T00:26:37.964Z,22.98
2018-06-19T00:29:08.378Z,23.18
2018-06-19T00:31:38.871Z,20.35
2018-06-19T00:34:09.349Z,16.95
2018-06-19T00:36:39.786Z,13.95
2018-06-19T00:39:11.756Z,8.48
2018-06-19T00:41:42.698Z,5.55
2018-06-19T00:44:14.018Z,6.85
2018-06-19T00:46:49.227Z,6.45
2018-06-19T00:49:20.658Z,6.25
2018-06-19T00:51:51.071Z,6.53
2018-06-19T00:54:21.778Z,5.92
2018-06-19T00:56:57.865Z,6.92
2018-06-19T00:59:28.374Z,5.97
2018-06-19T01:02:01.009Z,6.65
2018-06-19T01:04:31.549Z,7.10
2018-06-19T01:07:02.614Z,6.35
2018-06-19T01:09:33.037Z,6.25
2018-06-19T01:12:03.633Z,6.70
2018-06-19T01:14:34.695Z,5.55
2018-06-19T01:17:05.201Z,6.17
2018-06-19T01:19:35.612Z,6.00
2018-06-19T01:22:06.121Z,5.70
2018-06-19T01:24:36.623Z,5.70
2018-06-19T01:27:07.119Z,6.15
2018-06-19T01:29:37.583Z,6.85
2018-06-19T01:32:08.180Z,5.55
2018-06-19T01:34:38.644Z,6.00
2018-06-19T01:37:09.058Z,9.28
2018-06-19T01:39:39.534Z,12.68
2018-06-19T01:42:10.045Z,17.07
2018-06-19T01:44:40.524Z,17.30
2018-06-19T01:47:11.294Z,19.70
2018-06-19T01:49:41.708Z,15.30
2018-06-19T01:52:12.236Z,11.35
2018-06-19T01:54:42.682Z,16.12
2018-06-19T01:57:13.115Z,13.35
2018-06-19T01:59:43.555Z,12.47
2018-06-19T02:02:13.933Z,16.10
2018-06-19T02:04:44.352Z,15.60
2018-06-19T02:07:14.753Z,12.98
2018-06-19T02:09:45.256Z,10.72
2018-06-19T02:12:15.645Z,7.20
2018-06-19T02:14:46.724Z,5.28
2018-06-19T02:17:17.123Z,6.58
2018-06-19T02:19:47.574Z,9.23
2018-06-19T02:22:17.910Z,10.32
2018-06-19T02:24:48.323Z,9.10
2018-06-19T02:27:18.738Z,8.98
2018-06-19T02:29:49.245Z,8.68
2018-06-19T02:32:19.641Z,7.05
2018-06-19T02:34:50.067Z,7.05
2018-06-19T02:37:20.504Z,5.30
2018-06-19T02:39:50.936Z,9.30
2018-06-19T02:42:21.439Z,10.82
2018-06-19T02:44:51.964Z,9.35
2018-06-19T02:47:22.381Z,9.10
2018-06-19T02:49:52.784Z,7.83
2018-06-19T02:52:23.321Z,6.75
2018-06-19T02:54:53.770Z,7.33
2018-06-19T02:57:24.165Z,6.65
2018-06-19T02:59:54.620Z,6.92
2018-06-19T03:02:25.167Z,6.95
2018-06-19T03:04:55.602Z,7.40
2018-06-19T03:07:26.526Z,6.90
2018-06-19T03:09:57.573Z,7.97
2018-06-19T03:12:28.056Z,6.15
2018-06-19T03:14:58.526Z,5.90
2018-06-19T03:17:28.992Z,6.10
2018-06-19T03:19:59.379Z,5.87
2018-06-19T03:22:29.865Z,6.47
2018-06-19T03:25:00.273Z,6.60
2018-06-19T03:27:30.723Z,6.70
2018-06-19T03:30:01.153Z,6.45
2018-06-19T03:32:31.540Z,5.72
2018-06-19T03:35:01.951Z,5.70
2018-06-19T03:37:33.796Z,6.10
2018-06-19T03:40:04.303Z,5.65
2018-06-19T03:42:34.799Z,6.70
2018-06-19T03:45:05.623Z,6.20
2018-06-19T03:47:36.052Z,7.95
2018-06-19T03:50:07.813Z,7.35
2018-06-19T03:52:38.470Z,10.05
2018-06-19T03:55:08.979Z,10.50
2018-06-19T03:57:39.571Z,10.70
2018-06-19T04:00:10.091Z,9.65
2018-06-19T04:02:40.558Z,10.88
2018-06-19T04:05:11.026Z,7.67
2018-06-19T04:07:41.486Z,7.10
2018-06-19T04:10:11.932Z,9.65
2018-06-19T04:12:42.401Z,9.15
2018-06-19T04:15:12.806Z,15.45
2018-06-19T04:17:43.244Z,13.65
2018-06-19T04:20:13.771Z,9.48
2018-06-19T04:22:44.492Z,7.35
2018-06-19T04:25:15.010Z,5.78
2018-06-19T04:27:45.439Z,5.72
2018-06-19T04:30:15.957Z,5.85
2018-06-19T04:32:46.361Z,6.05
2018-06-19T04:35:16.862Z,6.33
2018-06-19T04:37:47.300Z,5.10
2018-06-19T04:40:17.669Z,5.90
2018-06-19T04:42:48.267Z,5.58
2018-06-19T04:45:18.700Z,5.62
2018-06-19T04:47:49.285Z,5.60
2018-06-19T04:50:19.685Z,5.50
2018-06-19T04:52:50.139Z,5.08
2018-06-19T04:55:21.292Z,5.12
2018-06-19T04:57:51.882Z,4.80
2018-06-19T05:00:22.343Z,4.58
2018-06-19T05:02:52.757Z,4.00
2018-06-19T05:05:23.159Z,4.25
2018-06-19T05:07:53.963Z,3.87
2018-06-19T05:10:24.397Z,3.92
2018-06-19T05:12:54.836Z,4.10
2018-06-19T05:15:25.391Z,3.62
2018-06-19T05:17:55.810Z,3.62
2018-06-19T05:20:26.326Z,3.55
2018-06-19T05:22:56.757Z,3.40
2018-06-19T05:25:27.340Z,3.27
2018-06-19T05:27:57.723Z,3.27
2018-06-19T05:30:28.254Z,2.87
2018-06-19T05:32:58.666Z,3.75
2018-06-19T05:35:29.095Z,3.20
2018-06-19T05:37:59.554Z,3.12
2018-06-19T05:40:30.285Z,3.60
2018-06-19T05:43:00.983Z,3.02
2018-06-19T05:45:31.431Z,3.20
2018-06-19T05:48:01.858Z,3.10
2018-06-19T05:50:32.395Z,3.55
2018-06-19T05:53:02.921Z,3.10
2018-06-19T05:55:33.329Z,3.60
2018-06-19T05:58:03.788Z,3.40
2018-06-19T06:00:34.199Z,3.20
2018-06-19T06:03:04.607Z,4.12
2018-06-19T06:05:35.121Z,3.20
2018-06-19T06:08:05.662Z,3.47
2018-06-19T06:10:36.920Z,3.47
2018-06-19T06:13:12.932Z,2.98
2018-06-19T06:15:43.354Z,3.60
2018-06-19T06:18:13.917Z,3.62
2018-06-19T06:20:55.240Z,2.92
2018-06-19T06:23:57.919Z,3.10
2018-06-19T06:26:31.332Z,3.00
2018-06-19T06:29:11.874Z,3.20
2018-06-19T06:31:59.754Z,2.95
2018-06-19T06:34:47.583Z,3.27
2018-06-19T06:37:46.380Z,3.75
2018-06-19T06:40:43.585Z,4.12
2018-06-19T06:43:19.978Z,3.10
2018-06-19T06:45:50.529Z,3.92
2018-06-19T06:48:21.105Z,3.30
2018-06-19T06:50:51.617Z,3.05
2018-06-19T06:53:22.399Z,2.90
2018-06-19T06:55:52.848Z,3.33
2018-06-19T06:58:23.312Z,3.10
2018-06-19T07:00:53.465Z,3.02
2018-06-19T07:03:24.266Z,3.20
2018-06-19T07:05:54.700Z,3.02
2018-06-19T07:08:25.141Z,2.62
2018-06-19T07:10:55.608Z,2.60
2018-06-19T07:13:26.087Z,3.52
2018-06-19T07:15:56.502Z,3.70
2018-06-19T07:18:27.112Z,3.33
2018-06-19T07:20:57.535Z,2.80
2018-06-19T07:23:27.976Z,2.80
2018-06-19T07:25:58.498Z,2.65
2018-06-19T07:28:28.990Z,3.08
2018-06-19T07:30:59.589Z,2.80
2018-06-19T07:33:30.095Z,3.10
2018-06-19T07:36:00.592Z,3.33
2018-06-19T07:38:31.206Z,3.08
2018-06-19T07:41:03.064Z,15.13
2018-06-19T07:43:33.534Z,2.50
2018-06-19T07:46:03.997Z,3.83
2018-06-19T07:48:34.520Z,2.87
2018-06-19T07:51:04.960Z,3.25
2018-06-19T07:53:35.419Z,3.00
2018-06-19T07:56:06.224Z,2.40
2018-06-19T07:58:37.190Z,3.80
2018-06-19T08:01:07.548Z,4.65
2018-06-19T08:03:37.941Z,2.60
2018-06-19T08:06:08.422Z,3.10
2018-06-19T08:08:38.883Z,3.15
2018-06-19T08:11:09.286Z,3.80
2018-06-19T08:13:39.691Z,2.70
2018-06-19T08:16:10.111Z,2.95
2018-06-19T08:18:40.210Z,3.00
2018-06-19T08:21:10.975Z,3.42
2018-06-19T08:23:41.643Z,3.42
2018-06-19T08:26:12.111Z,3.22
2018-06-19T08:28:42.560Z,2.87
2018-06-19T08:31:13.085Z,2.92
2018-06-19T08:33:43.515Z,2.80
2018-06-19T08:36:14.202Z,3.05
2018-06-19T08:38:44.649Z,3.10
2018-06-19T08:41:15.132Z,3.02
2018-06-19T08:43:45.542Z,3.40
2018-06-19T08:46:16.137Z,2.90
2018-06-19T08:48:47.443Z,3.00
2018-06-19T08:51:17.851Z,3.27
2018-06-19T08:53:49.225Z,3.35
2018-06-19T08:56:19.703Z,3.62
2018-06-19T08:58:50.234Z,3.40
2018-06-19T09:01:20.754Z,2.83
2018-06-19T09:03:51.209Z,2.95
2018-06-19T09:06:21.742Z,3.20
2018-06-19T09:08:52.248Z,3.08
2018-06-19T09:11:22.632Z,3.00
2018-06-19T09:13:53.118Z,2.45
2018-06-19T09:16:23.553Z,3.02
2018-06-19T09:18:54.081Z,2.75
2018-06-19T09:21:25.159Z,3.02
2018-06-19T09:23:55.941Z,3.47
2018-06-19T09:26:26.456Z,3.00
2018-06-19T09:28:56.954Z,4.53
2018-06-19T09:31:27.570Z,2.72
2018-06-19T09:33:57.909Z,3.00
2018-06-19T09:36:28.449Z,5.12
2018-06-19T09:38:59.720Z,3.60
2018-06-19T09:41:30.208Z,2.60
2018-06-19T09:44:00.639Z,2.70
2018-06-19T09:46:31.139Z,2.67
2018-06-19T09:49:02.142Z,3.02
2018-06-19T09:51:32.806Z,2.83
2018-06-19T09:54:03.378Z,2.62
2018-06-19T09:56:34.263Z,2.90
2018-06-19T09:59:05.108Z,3.12
2018-06-19T10:01:35.607Z,3.20
2018-06-19T10:04:06.194Z,2.85
2018-06-19T10:06:36.610Z,2.60
2018-06-19T10:09:09.972Z,2.60
2018-06-19T10:11:40.506Z,2.80
2018-06-19T10:14:10.923Z,2.30
2018-06-19T10:16:41.235Z,2.70
2018-06-19T10:19:11.538Z,3.42
2018-06-19T10:21:42.150Z,2.80
2018-06-19T10:24:12.988Z,3.00
2018-06-19T10:26:43.553Z,2.98
2018-06-19T10:29:14.012Z,2.45
2018-06-19T10:31:44.439Z,3.12
2018-06-19T10:34:14.912Z,2.85
2018-06-19T10:36:45.435Z,3.00
2018-06-19T10:39:15.949Z,3.30
2018-06-19T10:41:46.326Z,5.30
2018-06-19T10:44:16.760Z,2.55
2018-06-19T10:46:47.270Z,2.85
2018-06-19T10:49:17.734Z,2.52
2018-06-19T10:51:48.130Z,2.87
2018-06-19T10:54:18.643Z,2.50
2018-06-19T10:56:49.111Z,2.22
2018-06-19T10:59:20.232Z,2.58
2018-06-19T11:01:50.757Z,2.87
2018-06-19T11:04:21.302Z,2.60
2018-06-19T11:06:51.776Z,2.30
2018-06-19T11:09:22.269Z,2.70
2018-06-19T11:11:52.748Z,2.50
2018-06-19T11:14:23.180Z,2.20
2018-06-19T11:16:53.652Z,2.47
2018-06-19T11:19:23.790Z,2.37
2018-06-19T11:21:54.033Z,2.58
2018-06-19T11:24:24.437Z,2.42
2018-06-19T11:26:54.944Z,2.70
2018-06-19T11:29:25.385Z,3.08
2018-06-19T11:31:56.412Z,2.87
2018-06-19T11:34:26.847Z,2.22
2018-06-19T11:36:57.363Z,2.37
2018-06-19T11:39:27.710Z,2.10
2018-06-19T11:53:13.276Z,2.70
2018-06-19T11:55:43.805Z,2.40
2018-06-19T11:58:14.359Z,2.50
2018-06-19T12:00:44.813Z,2.92
2018-06-19T12:03:15.291Z,2.47
2018-06-19T12:05:46.213Z,2.50
2018-06-19T12:08:16.727Z,2.45
2018-06-19T12:10:47.192Z,2.10
2018-06-19T12:13:17.637Z,1.90
2018-06-19T12:15:48.013Z,2.00
2018-06-19T12:18:19.082Z,2.35
2018-06-19T12:20:49.806Z,2.30
2018-06-19T12:23:20.249Z,2.45
2018-06-19T12:25:50.693Z,2.60
2018-06-19T12:28:21.127Z,2.20
2018-06-19T12:30:51.611Z,2.40
2018-06-19T12:33:22.166Z,3.22
2018-06-19T12:35:52.679Z,2.70
2018-06-19T12:38:23.260Z,2.85
2018-06-19T12:40:53.714Z,2.05
2018-06-19T12:43:23.868Z,1.92
2018-06-19T12:45:54.187Z,2.52
2018-06-19T12:48:24.664Z,2.37
2018-06-19T12:52:12.605Z,2.52
2018-06-19T12:55:26.354Z,2.27
2018-06-19T12:57:56.790Z,2.42
2018-06-19T13:00:27.211Z,1.92
2018-06-19T13:03:14.479Z,2.10
2018-06-19T13:06:01.995Z,2.42
2018-06-19T13:08:32.447Z,2.40
2018-06-19T13:11:03.772Z,2.52
2018-06-19T13:13:51.901Z,2.62
2018-06-19T13:16:39.194Z,2.45
2018-06-19T13:19:27.472Z,3.12
2018-06-19T13:21:57.988Z,3.12
2018-06-19T13:24:28.139Z,2.60
2018-06-19T13:26:58.497Z,2.75
2018-06-19T13:29:49.596Z,2.40
2018-06-19T13:32:21.007Z,2.17
2018-06-19T13:34:52.151Z,2.50
2018-06-19T13:37:22.617Z,2.70
2018-06-19T13:41:15.994Z,2.15
2018-06-19T13:44:05.542Z,2.42
2018-06-19T13:46:36.737Z,2.20
2018-06-19T13:49:07.337Z,2.58
2018-06-19T13:51:38.006Z,2.33
2018-06-19T13:54:08.599Z,2.60
2018-06-19T13:57:34.404Z,2.65
2018-06-19T14:00:08.531Z,3.25
2018-06-19T14:02:38.994Z,2.20
2018-06-19T14:05:10.370Z,2.80
2018-06-19T14:07:57.864Z,2.40
2018-06-19T14:10:45.517Z,2.52
2018-06-19T14:13:16.918Z,2.75
2018-06-19T14:15:51.334Z,2.40
2018-06-19T14:18:22.195Z,2.35
2018-06-19T14:20:53.342Z,2.52
2018-06-19T14:23:23.851Z,2.60
2018-06-19T14:25:54.380Z,2.67
2018-06-19T14:28:24.868Z,2.72
2018-06-19T14:30:55.338Z,2.80
2018-06-19T14:33:25.991Z,2.25
2018-06-19T14:35:56.453Z,2.60
2018-06-19T14:38:26.908Z,2.20
2018-06-19T14:40:57.338Z,2.45
2018-06-19T14:43:27.813Z,2.40
2018-06-19T14:45:58.396Z,2.62
2018-06-19T14:48:29.502Z,2.33
2018-06-19T14:51:00.099Z,2.40
2018-06-19T14:53:30.674Z,3.00
2018-06-19T14:56:01.178Z,2.45
2018-06-19T14:58:31.645Z,3.02
2018-06-19T15:01:02.098Z,2.58
2018-06-19T15:03:32.516Z,2.87
2018-06-19T15:06:02.994Z,2.45
2018-06-19T15:08:33.410Z,3.08
2018-06-19T15:11:03.823Z,2.90
2018-06-19T15:13:34.282Z,2.70
2018-06-19T15:16:04.924Z,2.30
2018-06-19T15:18:35.436Z,2.40
2018-06-19T15:21:05.890Z,2.72
2018-06-19T15:23:36.329Z,2.65
2018-06-19T15:26:06.724Z,2.75
2018-06-19T15:28:37.116Z,2.55
2018-06-19T15:31:07.640Z,1.92
2018-06-19T15:33:38.053Z,2.80
2018-06-19T15:36:08.416Z,2.45
2018-06-19T15:38:38.827Z,2.55
2018-06-19T15:41:09.280Z,2.90
2018-06-19T15:43:39.806Z,2.58
2018-06-19T15:46:10.284Z,2.47
2018-06-19T15:48:40.841Z,2.75
2018-06-19T15:51:11.288Z,2.20
2018-06-19T15:53:41.873Z,2.70
2018-06-19T15:56:12.407Z,2.30
2018-06-19T15:58:43.028Z,2.55
2018-06-19T16:01:13.528Z,2.52
2018-06-19T16:03:44.339Z,2.62
2018-06-19T16:06:14.779Z,2.77
2018-06-19T16:08:45.186Z,2.37
2018-06-19T16:11:15.821Z,2.83
2018-06-19T16:13:46.432Z,3.42
2018-06-19T16:16:16.864Z,2.77
2018-06-19T16:18:47.305Z,2.30
2018-06-19T16:21:17.781Z,2.70
2018-06-19T16:23:48.409Z,2.37
2018-06-19T16:26:18.845Z,2.35
2018-06-19T16:28:49.313Z,2.50
2018-06-19T16:31:19.867Z,3.35
2018-06-19T16:33:50.340Z,2.45
2018-06-19T16:36:20.849Z,2.50
2018-06-19T16:38:52.280Z,2.52
2018-06-19T16:41:22.732Z,3.12
2018-06-19T16:43:53.193Z,2.65
2018-06-19T16:46:23.659Z,3.08
2018-06-19T16:48:54.116Z,2.40
2018-06-19T16:51:25.196Z,3.10
2018-06-19T16:53:56.408Z,2.87
2018-06-19T16:56:26.907Z,2.60
2018-06-19T16:58:57.352Z,2.40
2018-06-19T17:01:27.807Z,2.65
2018-06-19T17:03:58.984Z,3.45
2018-06-19T17:06:29.408Z,2.50
2018-06-19T17:08:59.823Z,2.47
2018-06-19T17:11:30.368Z,2.87
2018-06-19T17:14:00.849Z,3.15
2018-06-19T17:16:31.289Z,2.83
2018-06-19T17:19:01.869Z,2.80
2018-06-19T17:21:32.371Z,2.80
2018-06-19T17:24:02.900Z,2.77
2018-06-19T17:26:33.429Z,2.60
2018-06-19T17:29:03.935Z,3.02
2018-06-19T17:31:34.465Z,3.17
2018-06-19T17:34:04.926Z,2.52
2018-06-19T17:36:35.387Z,3.22
2018-06-19T17:39:09.790Z,2.65
2018-06-19T17:41:40.289Z,3.00
2018-06-19T17:44:10.753Z,3.15
2018-06-19T17:46:41.235Z,3.15
2018-06-19T17:49:11.698Z,2.45
2018-06-19T17:51:42.109Z,2.90
2018-06-19T17:54:12.697Z,3.47
2018-06-19T17:56:42.861Z,3.05
2018-06-19T17:59:13.150Z,3.37
2018-06-19T18:01:43.539Z,3.37
2018-06-19T18:04:13.964Z,3.17
2018-06-19T18:06:44.421Z,3.08
2018-06-19T18:09:14.846Z,3.15
2018-06-19T18:11:45.289Z,3.27
2018-06-19T18:14:15.753Z,2.95
2018-06-19T18:16:46.233Z,2.80
2018-06-19T18:19:16.838Z,3.30
2018-06-19T18:21:47.307Z,2.95
2018-06-19T18:24:17.736Z,3.52
2018-06-19T18:26:48.268Z,3.15
2018-06-19T18:29:18.839Z,3.37
2018-06-19T18:31:49.346Z,3.85
2018-06-19T18:34:19.787Z,3.22
2018-06-19T18:36:51.201Z,3.58
2018-06-19T18:39:21.765Z,3.90
2018-06-19T18:41:52.208Z,3.83
2018-06-19T18:44:22.736Z,3.05
2018-06-19T18:46:53.337Z,3.80
2018-06-19T18:49:23.768Z,3.90
2018-06-19T18:51:54.325Z,3.98
2018-06-19T18:54:24.843Z,7.30
2018-06-19T18:56:55.277Z,6.30
2018-06-19T18:59:27.731Z,7.00
2018-06-19T19:01:58.184Z,7.37
2018-06-19T19:04:28.663Z,6.22
2018-06-19T19:06:59.060Z,6.00
2018-06-19T19:09:29.637Z,5.72
2018-06-19T19:12:00.126Z,7.33
2018-06-19T19:14:34.624Z,5.50
2018-06-19T19:19:12.304Z,5.75
2018-06-19T19:21:42.769Z,7.55
2018-06-19T19:24:13.297Z,10.85
2018-06-19T19:26:49.034Z,12.05
2018-06-19T19:29:24.793Z,10.35
2018-06-19T19:31:55.490Z,9.88
2018-06-19T19:34:25.986Z,8.70
2018-06-19T19:37:01.590Z,8.75
2018-06-19T19:39:32.063Z,7.78
2018-06-19T19:42:02.114Z,7.28
2018-06-19T19:44:32.467Z,6.83
2018-06-19T19:47:08.017Z,6.50
2018-06-19T19:49:39.215Z,5.50
2018-06-19T19:52:09.849Z,5.40
2018-06-19T19:54:40.259Z,5.92
2018-06-19T19:57:15.791Z,4.25
2018-06-19T19:59:46.255Z,4.90
2018-06-19T20:02:17.240Z,5.58
2018-06-19T20:04:47.649Z,5.58
2018-06-19T20:07:18.305Z,6.08
2018-06-19T20:09:48.861Z,5.37
2018-06-19T20:12:20.357Z,6.28
2018-06-19T20:14:51.324Z,5.50
2018-06-19T20:17:22.738Z,5.28
2018-06-19T20:19:53.466Z,5.37
2018-06-19T20:22:23.870Z,5.72
2018-06-19T20:24:54.498Z,5.67
2018-06-19T20:27:24.980Z,5.75
2018-06-19T20:29:55.471Z,5.22
2018-06-19T20:32:25.920Z,5.10
2018-06-19T20:34:56.409Z,5.12
2018-06-19T20:37:27.657Z,4.75
2018-06-19T20:39:58.085Z,5.28
2018-06-19T20:42:28.497Z,5.05
2018-06-19T20:44:59.937Z,5.42
2018-06-19T20:47:30.831Z,4.75
2018-06-19T20:50:01.244Z,4.53
2018-06-19T20:52:32.765Z,4.25
2018-06-19T20:55:03.676Z,4.25
2018-06-19T20:57:34.206Z,4.12
2018-06-19T21:00:04.698Z,4.60
2018-06-19T21:02:35.141Z,4.15
2018-06-19T21:05:05.781Z,4.35
2018-06-19T21:07:36.185Z,4.10
2018-06-19T21:10:06.726Z,4.20
2018-06-19T21:12:37.151Z,3.85
2018-06-19T21:15:07.637Z,4.28
2018-06-19T21:17:38.793Z,4.10
2018-06-19T21:20:09.227Z,3.72
2018-06-19T21:22:39.666Z,3.83
2018-06-19T21:25:10.057Z,3.85
2018-06-19T21:27:40.478Z,3.50
2018-06-19T21:30:10.932Z,3.98
2018-06-19T21:32:41.408Z,4.25
2018-06-19T21:35:11.866Z,4.53
2018-06-19T21:37:42.333Z,3.70
2018-06-19T21:40:12.799Z,3.80
2018-06-19T21:42:43.284Z,3.58
2018-06-19T21:45:13.729Z,3.35
2018-06-19T21:47:44.211Z,3.83
2018-06-19T21:50:14.631Z,4.10
2018-06-19T21:52:45.024Z,3.60
2018-06-19T21:55:15.450Z,3.55
2018-06-19T21:57:45.997Z,3.65
2018-06-19T22:00:16.472Z,3.70
2018-06-19T22:02:46.932Z,3.47
2018-06-19T22:05:17.420Z,4.30
2018-06-19T22:07:47.880Z,3.80
2018-06-19T22:10:18.307Z,3.77
2018-06-19T22:12:48.701Z,3.70
2018-06-19T22:15:19.194Z,3.80
2018-06-19T22:17:49.641Z,4.30
2018-06-19T22:20:20.612Z,4.72
2018-06-19T22:22:51.019Z,4.72
2018-06-19T22:25:21.448Z,4.53
2018-06-19T22:27:51.859Z,3.90
2018-06-19T22:30:22.353Z,3.45
2018-06-19T22:32:53.410Z,3.75
2018-06-19T22:35:23.925Z,4.40
2018-06-19T22:37:54.339Z,4.45
2018-06-19T22:40:24.843Z,4.90
2018-06-19T22:42:55.254Z,4.50
2018-06-19T22:45:25.717Z,4.15
2018-06-19T22:47:56.173Z,4.15
2018-06-19T22:50:26.718Z,4.65
2018-06-19T22:52:57.222Z,4.00
2018-06-19T22:55:27.553Z,3.92
2018-06-19T22:57:58.001Z,4.00
2018-06-19T23:00:28.463Z,4.00
2018-06-19T23:03:03.238Z,3.83
2018-06-19T23:05:34.845Z,5.08
2018-06-19T23:08:05.390Z,4.40
2018-06-19T23:10:35.862Z,3.87
2018-06-19T23:13:06.318Z,4.08
2018-06-19T23:15:36.679Z,4.15
2018-06-19T23:18:07.140Z,4.33
2018-06-19T23:20:37.737Z,4.47
2018-06-19T23:23:08.232Z,3.95
2018-06-19T23:25:38.605Z,4.75
2018-06-19T23:28:08.997Z,4.50
2018-06-19T23:30:39.390Z,4.20
2018-06-19T23:33:09.888Z,4.53
2018-06-19T23:35:40.270Z,5.22
2018-06-19T23:38:10.788Z,4.40
2018-06-19T23:40:41.174Z,4.40
2018-06-19T23:43:11.588Z,4.55
2018-06-19T23:45:42.028Z,4.50
2018-06-19T23:48:13.308Z,4.92
2018-06-19T23:50:43.796Z,5.30
2018-06-19T23:53:14.251Z,4.87
2018-06-19T23:55:44.721Z,4.70
2018-06-19T23:58:15.964Z,4.55
